Time;durP1;ratioP1;P1;durP2;ratioP2;P2;SDS_P1;SDS_P2;PMS_P1;PMS_P2;Temp;Humidity;BMP_temperature;BMP_pressure;BME280_temperature;BME280_humidity;BME280_pressure;Samples;Min_cycle;Max_cycle;Signal;HPM_P1;HPM_P2
2022/04/18 00:01:45;;;;;;;;;2.67;2.67;;;;;;;;5098140;27;51587;-60
2022/04/18 00:04:10;;;;;;;;;2.33;2.00;;;;;;;;5098143;27;51353;-60
2022/04/18 00:06:36;;;;;;;;;1.33;1.33;;;;;;;;5096889;27;51200;-60
2022/04/18 00:09:05;;;;;;;;;3.00;3.00;;;;;;;;5097192;27;51544;-59
2022/04/18 00:11:30;;;;;;;;;2.00;2.00;;;;;;;;5094222;27;51325;-59
2022/04/18 00:13:55;;;;;;;;;3.00;3.00;;;;;;;;5097074;27;51190;-60
2022/04/18 00:16:20;;;;;;;;;2.00;2.00;;;;;;;;5097764;27;51298;-59
2022/04/18 00:18:46;;;;;;;;;3.00;3.00;;;;;;;;5097561;27;51217;-59
2022/04/18 00:21:11;;;;;;;;;3.00;3.00;;;;;;;;5095378;27;51438;-59
2022/04/18 00:23:36;;;;;;;;;2.00;2.00;;;;;;;;5096635;27;51149;-59
2022/04/18 00:26:02;;;;;;;;;3.00;2.67;;;;;;;;5096379;27;51737;-59
2022/04/18 00:28:27;;;;;;;;;2.00;2.00;;;;;;;;5096339;27;51123;-59
2022/04/18 00:30:53;;;;;;;;;2.67;2.67;;;;;;;;5099752;27;51146;-59
2022/04/18 00:33:18;;;;;;;;;2.67;2.00;;;;;;;;5099520;27;51212;-60
2022/04/18 00:35:43;;;;;;;;;2.00;2.00;;;;;;;;5094324;27;52134;-60
2022/04/18 00:38:08;;;;;;;;;2.00;2.00;;;;;;;;5097650;27;51329;-59
2022/04/18 00:40:33;;;;;;;;;2.00;2.00;;;;;;;;5094301;27;51531;-59
2022/04/18 00:43:03;;;;;;;;;2.33;2.00;;;;;;;;5097889;27;51406;-59
2022/04/18 00:45:28;;;;;;;;;4.00;3.00;;;;;;;;5082435;27;52728;-59
2022/04/18 00:47:53;;;;;;;;;2.00;1.00;;;;;;;;5099007;27;51201;-59
2022/04/18 00:50:18;;;;;;;;;2.00;2.00;;;;;;;;5092982;27;51306;-58
2022/04/18 00:52:45;;;;;;;;;2.00;2.00;;;;;;;;5098155;27;51246;-58
2022/04/18 00:55:10;;;;;;;;;1.33;1.33;;;;;;;;5095653;27;51394;-58
2022/04/18 00:57:36;;;;;;;;;2.00;2.00;;;;;;;;5079313;27;51165;-59
2022/04/18 01:00:01;;;;;;;;;3.00;3.00;;;;;;;;5095454;27;51391;-60
2022/04/18 01:02:26;;;;;;;;;1.00;1.00;;;;;;;;5096963;27;51314;-60
2022/04/18 01:04:51;;;;;;;;;2.00;2.00;;;;;;;;5096534;27;51335;-58
2022/04/18 01:07:16;;;;;;;;;2.67;2.00;;;;;;;;5095401;27;51915;-58
2022/04/18 01:09:42;;;;;;;;;3.00;3.00;;;;;;;;5096501;27;51406;-59
2022/04/18 01:12:07;;;;;;;;;2.00;2.00;;;;;;;;5096190;27;51793;-59
2022/04/18 01:14:32;;;;;;;;;2.00;2.00;;;;;;;;5094586;27;51072;-59
2022/04/18 01:16:58;;;;;;;;;1.33;1.33;;;;;;;;5093155;27;51309;-59
2022/04/18 01:19:23;;;;;;;;;3.00;3.00;;;;;;;;5099287;27;51265;-60
2022/04/18 01:21:48;;;;;;;;;1.33;1.33;;;;;;;;5095867;27;51207;-58
2022/04/18 01:29:41;;;;;;;;;5.00;4.00;;;;;;;;5100306;27;51305;-59
2022/04/18 01:32:06;;;;;;;;;2.33;2.33;;;;;;;;5100786;27;51378;-60
2022/04/18 01:34:32;;;;;;;;;2.00;2.00;;;;;;;;5099053;27;51144;-60
2022/04/18 01:36:57;;;;;;;;;1.00;1.00;;;;;;;;5081711;27;51427;-61
2022/04/18 01:39:22;;;;;;;;;1.00;1.00;;;;;;;;5099427;27;51117;-60
2022/04/18 01:41:47;;;;;;;;;3.67;2.67;;;;;;;;5096887;27;51287;-60
2022/04/18 01:44:13;;;;;;;;;2.00;2.00;;;;;;;;5101437;27;51233;-60
2022/04/18 01:46:38;;;;;;;;;2.50;2.50;;;;;;;;5098162;27;51281;-59
2022/04/18 01:49:03;;;;;;;;;2.75;2.75;;;;;;;;5101537;27;50977;-59
2022/04/18 01:51:29;;;;;;;;;2.00;2.00;;;;;;;;5101827;27;51104;-59
2022/04/18 01:53:54;;;;;;;;;2.33;2.00;;;;;;;;5099228;27;51675;-59
2022/04/18 01:56:19;;;;;;;;;2.00;2.00;;;;;;;;5101879;27;52564;-59
2022/04/18 01:58:44;;;;;;;;;2.33;2.33;;;;;;;;5100769;27;51012;-59
2022/04/18 02:01:10;;;;;;;;;1.00;1.00;;;;;;;;5098272;27;51219;-59
2022/04/18 02:03:35;;;;;;;;;3.00;2.33;;;;;;;;5102125;27;52154;-60
2022/04/18 02:06:00;;;;;;;;;2.67;2.67;;;;;;;;5098431;27;50900;-59
2022/04/18 02:08:26;;;;;;;;;3.67;3.00;;;;;;;;5099796;27;51302;-59
2022/04/18 02:10:52;;;;;;;;;2.67;2.67;;;;;;;;5103042;27;51341;-59
2022/04/18 02:13:17;;;;;;;;;2.00;2.00;;;;;;;;5092925;27;51693;-59
2022/04/18 02:15:43;;;;;;;;;2.00;2.00;;;;;;;;5100462;27;51205;-60
2022/04/18 02:18:08;;;;;;;;;3.00;2.00;;;;;;;;5101689;27;51695;-58
2022/04/18 02:20:33;;;;;;;;;1.33;1.33;;;;;;;;5097249;27;51398;-59
2022/04/18 02:22:58;;;;;;;;;2.67;2.00;;;;;;;;5099480;27;51706;-59
2022/04/18 02:25:24;;;;;;;;;2.00;2.00;;;;;;;;5097624;27;52849;-59
2022/04/18 02:27:51;;;;;;;;;1.00;1.00;;;;;;;;5097579;27;51245;-58
2022/04/18 02:30:16;;;;;;;;;2.00;2.00;;;;;;;;5078868;27;51408;-58
2022/04/18 02:32:47;;;;;;;;;3.00;3.00;;;;;;;;5100871;27;51418;-58
2022/04/18 02:35:17;;;;;;;;;2.50;2.00;;;;;;;;5099359;27;51249;-58
2022/04/18 02:37:42;;;;;;;;;2.75;2.75;;;;;;;;5097228;27;51290;-59
2022/04/18 02:40:07;;;;;;;;;3.00;2.33;;;;;;;;5101534;27;53365;-59
2022/04/18 02:42:33;;;;;;;;;2.00;2.00;;;;;;;;5094013;27;52906;-60
2022/04/18 02:44:58;;;;;;;;;3.00;3.00;;;;;;;;5098977;27;51209;-59
2022/04/18 02:47:23;;;;;;;;;2.67;2.67;;;;;;;;5099372;27;51048;-59
2022/04/18 02:49:50;;;;;;;;;2.00;2.00;;;;;;;;5082013;27;51367;-59
2022/04/18 02:52:15;;;;;;;;;2.00;2.00;;;;;;;;5100516;27;51381;-59
2022/04/18 02:54:41;;;;;;;;;2.00;2.00;;;;;;;;5099956;27;51534;-58
2022/04/18 02:57:06;;;;;;;;;3.25;3.00;;;;;;;;5099480;27;51474;-59
2022/04/18 02:59:31;;;;;;;;;3.00;2.00;;;;;;;;5098427;27;51482;-58
2022/04/18 03:01:57;;;;;;;;;1.50;1.50;;;;;;;;5095710;27;51799;-59
2022/04/18 03:04:22;;;;;;;;;2.00;2.00;;;;;;;;5099173;27;51570;-59
2022/04/18 03:06:48;;;;;;;;;3.00;3.00;;;;;;;;5099218;27;51437;-59
2022/04/18 03:09:15;;;;;;;;;3.00;2.67;;;;;;;;5096662;27;52703;-58
2022/04/18 03:11:40;;;;;;;;;2.25;2.00;;;;;;;;5100724;27;51925;-59
2022/04/18 03:14:05;;;;;;;;;3.00;3.00;;;;;;;;5095008;27;51244;-59
2022/04/18 03:16:30;;;;;;;;;2.25;2.25;;;;;;;;5098361;27;52106;-59
2022/04/18 03:18:55;;;;;;;;;2.00;2.00;;;;;;;;5099556;27;51217;-59
2022/04/18 03:21:21;;;;;;;;;3.00;3.00;;;;;;;;5096443;27;51165;-60
2022/04/18 03:23:46;;;;;;;;;3.00;3.00;;;;;;;;5095223;27;51794;-60
2022/04/18 03:26:11;;;;;;;;;3.00;3.00;;;;;;;;5100055;27;51700;-60
2022/04/18 03:28:37;;;;;;;;;2.75;2.75;;;;;;;;5095267;27;51526;-59
2022/04/18 03:31:02;;;;;;;;;3.00;2.00;;;;;;;;5098555;27;51948;-59
2022/04/18 03:33:28;;;;;;;;;3.00;3.00;;;;;;;;5100068;27;51069;-59
2022/04/18 03:41:21;;;;;;;;;3.00;3.00;;;;;;;;5095945;27;51647;-59
2022/04/18 03:43:46;;;;;;;;;3.00;3.00;;;;;;;;5097201;27;51776;-59
2022/04/18 03:46:11;;;;;;;;;2.00;2.00;;;;;;;;5098509;27;51248;-59
2022/04/18 03:48:36;;;;;;;;;2.33;2.33;;;;;;;;5099087;27;51283;-59
2022/04/18 03:51:02;;;;;;;;;2.00;2.00;;;;;;;;5096250;27;52232;-58
2022/04/18 03:53:27;;;;;;;;;2.00;1.00;;;;;;;;5079179;27;51342;-59
2022/04/18 03:55:52;;;;;;;;;4.00;3.00;;;;;;;;5103594;27;52128;-59
2022/04/18 03:58:17;;;;;;;;;3.00;2.00;;;;;;;;5096821;27;51022;-58
2022/04/18 04:00:43;;;;;;;;;3.00;3.00;;;;;;;;5097403;27;51264;-58
2022/04/18 04:03:08;;;;;;;;;3.00;3.00;;;;;;;;5095998;27;51305;-59
2022/04/18 04:05:34;;;;;;;;;2.50;2.00;;;;;;;;5096790;27;51036;-60
2022/04/18 04:07:59;;;;;;;;;3.00;2.00;;;;;;;;5096975;27;51164;-60
2022/04/18 04:10:24;;;;;;;;;1.00;1.00;;;;;;;;5072848;27;53467;-60
2022/04/18 04:12:49;;;;;;;;;2.00;2.00;;;;;;;;5100327;27;51261;-59
2022/04/18 04:15:14;;;;;;;;;3.00;3.00;;;;;;;;5098333;27;51273;-59
2022/04/18 04:17:40;;;;;;;;;2.00;2.00;;;;;;;;5099793;27;52897;-59
2022/04/18 04:20:05;;;;;;;;;2.00;2.00;;;;;;;;5096257;27;52462;-59
2022/04/18 04:22:31;;;;;;;;;3.00;3.00;;;;;;;;5100379;27;51208;-59
2022/04/18 04:24:57;;;;;;;;;3.00;3.00;;;;;;;;5095217;27;51445;-59
2022/04/18 04:27:22;;;;;;;;;3.00;3.00;;;;;;;;5093055;27;51644;-59
2022/04/18 04:29:48;;;;;;;;;3.25;3.25;;;;;;;;5095746;27;52244;-59
2022/04/18 04:32:13;;;;;;;;;2.67;2.00;;;;;;;;5098574;27;50981;-59
2022/04/18 04:34:40;;;;;;;;;3.50;3.50;;;;;;;;5095152;27;51176;-59
2022/04/18 04:37:05;;;;;;;;;4.00;4.00;;;;;;;;5094510;27;51440;-58
2022/04/18 04:39:31;;;;;;;;;2.50;2.50;;;;;;;;5077020;27;51277;-59
2022/04/18 04:41:56;;;;;;;;;3.00;2.67;;;;;;;;5099233;27;51147;-59
2022/04/18 04:44:22;;;;;;;;;3.00;2.67;;;;;;;;5096750;27;51403;-59
2022/04/18 04:46:47;;;;;;;;;3.00;3.00;;;;;;;;5097273;27;52266;-59
2022/04/18 04:49:12;;;;;;;;;2.00;2.00;;;;;;;;5098948;27;51690;-59
2022/04/18 04:51:38;;;;;;;;;3.00;3.00;;;;;;;;5098692;27;51578;-59
2022/04/18 04:54:04;;;;;;;;;3.00;3.00;;;;;;;;5097460;27;51335;-59
2022/04/18 04:56:29;;;;;;;;;3.00;3.00;;;;;;;;5100912;27;51275;-58
2022/04/18 04:58:54;;;;;;;;;2.25;2.00;;;;;;;;5092052;27;51032;-61
2022/04/18 05:01:20;;;;;;;;;4.00;4.00;;;;;;;;5095562;27;51440;-59
2022/04/18 05:03:45;;;;;;;;;3.00;3.00;;;;;;;;5095082;27;51218;-59
2022/04/18 05:06:11;;;;;;;;;3.00;2.75;;;;;;;;5077835;27;50884;-60
2022/04/18 05:08:36;;;;;;;;;2.00;2.00;;;;;;;;5101653;27;52185;-60
2022/04/18 05:11:02;;;;;;;;;2.25;2.00;;;;;;;;5097268;27;51373;-60
2022/04/18 05:13:27;;;;;;;;;3.75;3.75;;;;;;;;5100815;27;51200;-60
2022/04/18 05:15:52;;;;;;;;;4.00;3.00;;;;;;;;5095536;27;51238;-60
2022/04/18 05:18:17;;;;;;;;;3.00;3.00;;;;;;;;5099304;27;51104;-59
2022/04/18 05:20:44;;;;;;;;;2.00;2.00;;;;;;;;5097655;27;51759;-61
2022/04/18 05:23:11;;;;;;;;;3.33;3.33;;;;;;;;5079396;27;51315;-58
2022/04/18 05:25:36;;;;;;;;;4.25;3.50;;;;;;;;5101784;27;50970;-59
2022/04/18 05:28:01;;;;;;;;;3.33;3.00;;;;;;;;5079578;27;54059;-59
2022/04/18 05:30:27;;;;;;;;;3.00;3.00;;;;;;;;5101334;27;51187;-59
2022/04/18 05:32:52;;;;;;;;;2.67;2.67;;;;;;;;5099727;27;51251;-59
2022/04/18 05:35:17;;;;;;;;;4.00;4.00;;;;;;;;5103000;27;51347;-59
2022/04/18 05:37:42;;;;;;;;;4.50;4.00;;;;;;;;5096608;27;51040;-59
2022/04/18 05:40:08;;;;;;;;;4.00;3.67;;;;;;;;5100462;27;51174;-60
2022/04/18 05:42:33;;;;;;;;;4.00;4.00;;;;;;;;5066709;27;51234;-59
2022/04/18 05:44:58;;;;;;;;;3.00;3.00;;;;;;;;5102941;27;51550;-59
2022/04/18 05:47:24;;;;;;;;;5.00;4.00;;;;;;;;5098242;27;51833;-58
2022/04/18 05:49:49;;;;;;;;;5.50;5.50;;;;;;;;5096027;27;51001;-59
2022/04/18 05:52:15;;;;;;;;;2.33;2.33;;;;;;;;5097368;27;51522;-58
2022/04/18 05:54:40;;;;;;;;;4.00;4.00;;;;;;;;5103547;27;51360;-61
2022/04/18 05:57:06;;;;;;;;;4.00;4.00;;;;;;;;5102728;27;51901;-59
2022/04/18 05:59:32;;;;;;;;;4.00;4.00;;;;;;;;5095477;27;51249;-59
2022/04/18 06:01:57;;;;;;;;;5.00;4.00;;;;;;;;5102869;27;51238;-59
2022/04/18 06:04:22;;;;;;;;;4.00;4.00;;;;;;;;5099827;27;51177;-59
2022/04/18 06:06:47;;;;;;;;;3.67;3.67;;;;;;;;5096345;27;51287;-60
2022/04/18 06:09:13;;;;;;;;;5.33;5.33;;;;;;;;5099286;27;51165;-59
2022/04/18 06:11:38;;;;;;;;;3.67;3.67;;;;;;;;5098030;27;51943;-59
2022/04/18 06:14:03;;;;;;;;;3.33;3.33;;;;;;;;5082017;27;51221;-59
2022/04/18 06:16:28;;;;;;;;;5.00;5.00;;;;;;;;5096423;27;52148;-59
2022/04/18 06:18:53;;;;;;;;;5.00;4.00;;;;;;;;5098328;27;51404;-57
2022/04/18 06:21:19;;;;;;;;;4.00;4.00;;;;;;;;5100761;27;51337;-58
2022/04/18 06:23:44;;;;;;;;;2.00;2.00;;;;;;;;5077391;27;51193;-58
2022/04/18 06:26:09;;;;;;;;;5.00;4.33;;;;;;;;5097046;27;51932;-59
2022/04/18 06:28:35;;;;;;;;;3.00;3.00;;;;;;;;5099601;27;51757;-59
2022/04/18 06:31:00;;;;;;;;;4.00;4.00;;;;;;;;5077727;27;51461;-58
2022/04/18 06:33:25;;;;;;;;;3.67;3.67;;;;;;;;5096018;27;51209;-59
2022/04/18 06:35:51;;;;;;;;;5.00;4.00;;;;;;;;5102860;27;51331;-59
2022/04/18 06:38:16;;;;;;;;;5.00;5.00;;;;;;;;5100343;27;51378;-58
2022/04/18 06:40:41;;;;;;;;;5.00;5.00;;;;;;;;5099963;27;51193;-58
2022/04/18 06:43:07;;;;;;;;;3.67;3.67;;;;;;;;5096496;27;51202;-57
2022/04/18 06:45:32;;;;;;;;;4.00;4.00;;;;;;;;5097801;27;52890;-57
2022/04/18 06:47:57;;;;;;;;;4.67;4.00;;;;;;;;5100187;27;51249;-60
2022/04/18 06:50:22;;;;;;;;;5.00;5.00;;;;;;;;5098953;27;51272;-58
2022/04/18 06:52:50;;;;;;;;;5.67;5.67;;;;;;;;5097470;27;51359;-59
2022/04/18 06:55:15;;;;;;;;;6.00;6.00;;;;;;;;5097430;27;51836;-58
2022/04/18 06:57:40;;;;;;;;;5.00;4.00;;;;;;;;5096421;27;50979;-58
2022/04/18 07:00:06;;;;;;;;;4.00;3.33;;;;;;;;5100739;27;51282;-58
2022/04/18 07:02:32;;;;;;;;;5.00;5.00;;;;;;;;5102453;27;51355;-59
2022/04/18 07:04:57;;;;;;;;;5.33;5.33;;;;;;;;5100856;27;51726;-59
2022/04/18 07:07:23;;;;;;;;;4.00;4.00;;;;;;;;5100667;27;51230;-59
2022/04/18 07:09:49;;;;;;;;;7.67;7.67;;;;;;;;5102112;27;52706;-58
2022/04/18 07:12:14;;;;;;;;;5.33;5.33;;;;;;;;5098566;27;51230;-58
2022/04/18 07:14:41;;;;;;;;;4.00;4.00;;;;;;;;5097635;27;51569;-58
2022/04/18 07:17:06;;;;;;;;;4.67;4.67;;;;;;;;5096277;27;51866;-58
2022/04/18 07:19:33;;;;;;;;;4.00;4.00;;;;;;;;5097766;27;51392;-59
2022/04/18 07:21:58;;;;;;;;;4.00;4.00;;;;;;;;5101626;27;51783;-59
2022/04/18 07:24:23;;;;;;;;;5.00;4.33;;;;;;;;5099480;27;51246;-59
2022/04/18 07:26:49;;;;;;;;;5.00;5.00;;;;;;;;5098437;27;51083;-59
2022/04/18 07:29:14;;;;;;;;;4.33;3.67;;;;;;;;5098385;27;51226;-59
2022/04/18 07:31:40;;;;;;;;;5.67;5.00;;;;;;;;5099608;27;50983;-59
2022/04/18 07:34:05;;;;;;;;;6.00;6.00;;;;;;;;5097782;27;52042;-59
2022/04/18 07:36:30;;;;;;;;;6.33;5.00;;;;;;;;5099093;27;52421;-58
2022/04/18 07:38:55;;;;;;;;;6.33;6.00;;;;;;;;5094749;27;51904;-59
2022/04/18 07:41:25;;;;;;;;;7.00;5.33;;;;;;;;5099901;27;51339;-57
2022/04/18 07:43:50;;;;;;;;;5.00;5.00;;;;;;;;5098003;27;52742;-59
2022/04/18 07:46:16;;;;;;;;;5.00;4.33;;;;;;;;5099125;27;51133;-59
2022/04/18 07:48:41;;;;;;;;;6.00;5.00;;;;;;;;5098417;27;51143;-58
2022/04/18 07:53:50;;;;;;;;;5.00;5.00;;;;;;;;5096979;27;51514;-58
2022/04/18 07:56:16;;;;;;;;;5.00;5.00;;;;;;;;5097994;27;51581;-58
2022/04/18 07:58:41;;;;;;;;;5.00;5.00;;;;;;;;5098543;27;51609;-59
2022/04/18 08:01:06;;;;;;;;;6.00;5.67;;;;;;;;5095803;27;51538;-59
2022/04/18 08:03:35;;;;;;;;;4.67;4.33;;;;;;;;5076511;27;52950;-59
2022/04/18 08:06:00;;;;;;;;;5.67;4.67;;;;;;;;5101929;27;51223;-59
2022/04/18 08:08:26;;;;;;;;;5.00;5.00;;;;;;;;5097529;27;51453;-59
2022/04/18 08:10:51;;;;;;;;;4.00;4.00;;;;;;;;5079295;27;51324;-59
2022/04/18 08:13:16;;;;;;;;;5.00;5.00;;;;;;;;5100769;27;52703;-60
2022/04/18 08:15:41;;;;;;;;;6.00;4.67;;;;;;;;5097757;27;51425;-60
2022/04/18 08:18:07;;;;;;;;;6.33;6.00;;;;;;;;5100029;27;51214;-57
2022/04/18 08:20:32;;;;;;;;;4.00;4.00;;;;;;;;5098363;27;51216;-59
2022/04/18 08:22:57;;;;;;;;;6.00;6.00;;;;;;;;5094991;27;51690;-59
2022/04/18 08:25:23;;;;;;;;;6.67;6.67;;;;;;;;5077696;27;51278;-58
2022/04/18 08:27:48;;;;;;;;;5.33;5.33;;;;;;;;5093664;27;51323;-58
2022/04/18 08:30:13;;;;;;;;;5.00;5.00;;;;;;;;5095561;27;51272;-58
2022/04/18 08:32:39;;;;;;;;;6.67;6.33;;;;;;;;5097460;27;52124;-57
2022/04/18 08:35:05;;;;;;;;;5.00;5.00;;;;;;;;5096256;27;51358;-58
2022/04/18 08:37:30;;;;;;;;;4.33;4.33;;;;;;;;5095495;27;51246;-60
2022/04/18 08:39:55;;;;;;;;;6.00;6.00;;;;;;;;5095430;27;51131;-60
2022/04/18 08:42:24;;;;;;;;;4.00;4.00;;;;;;;;5099688;27;51212;-60
2022/04/18 08:44:52;;;;;;;;;5.00;5.00;;;;;;;;5097387;27;51132;-60
2022/04/18 08:52:50;;;;;;;;;6.67;6.67;;;;;;;;5065521;27;51335;-62
2022/04/18 08:55:16;;;;;;;;;6.00;6.00;;;;;;;;5077526;27;51209;-59
2022/04/18 08:57:42;;;;;;;;;8.00;7.67;;;;;;;;5099571;27;51114;-60
2022/04/18 09:00:07;;;;;;;;;8.67;8.67;;;;;;;;5094454;27;51636;-60
2022/04/18 09:02:32;;;;;;;;;9.33;9.00;;;;;;;;5099476;27;51915;-60
2022/04/18 09:04:57;;;;;;;;;7.00;7.00;;;;;;;;5097458;27;51492;-62
2022/04/18 09:07:23;;;;;;;;;8.00;8.00;;;;;;;;5094601;27;51274;-61
2022/04/18 09:09:54;;;;;;;;;12.33;12.00;;;;;;;;5080101;27;51353;-60
2022/04/18 09:12:20;;;;;;;;;10.00;10.00;;;;;;;;5095424;27;52178;-60
2022/04/18 09:14:48;;;;;;;;;11.33;10.00;;;;;;;;5094648;27;52612;-59
2022/04/18 09:17:33;;;;;;;;;10.33;10.33;;;;;;;;5095939;27;51613;-60
2022/04/18 09:20:10;;;;;;;;;6.00;6.00;;;;;;;;5074937;27;51240;-60
2022/04/18 09:22:46;;;;;;;;;12.00;11.67;;;;;;;;5076705;27;51602;-59
2022/04/18 09:25:12;;;;;;;;;10.00;10.00;;;;;;;;5092609;27;51102;-59
2022/04/18 09:27:37;;;;;;;;;12.33;11.67;;;;;;;;5094641;27;51164;-59
2022/04/18 09:30:06;;;;;;;;;7.67;7.67;;;;;;;;5097608;27;51884;-60
2022/04/18 09:32:32;;;;;;;;;11.00;11.00;;;;;;;;5097021;27;52535;-60
2022/04/18 09:35:03;;;;;;;;;13.00;12.00;;;;;;;;5090885;27;51679;-60
2022/04/18 09:37:29;;;;;;;;;10.00;9.33;;;;;;;;5096194;27;51099;-60
2022/04/18 09:39:54;;;;;;;;;8.67;8.33;;;;;;;;5077274;27;51304;-60
2022/04/18 09:42:21;;;;;;;;;12.00;12.00;;;;;;;;5075839;27;53482;-61
2022/04/18 09:44:46;;;;;;;;;10.33;10.33;;;;;;;;5094578;27;51387;-60
2022/04/18 09:47:18;;;;;;;;;10.00;9.00;;;;;;;;5096090;27;51226;-59
2022/04/18 09:49:43;;;;;;;;;10.67;10.67;;;;;;;;5092503;27;51384;-60
2022/04/18 09:52:16;;;;;;;;;9.00;9.00;;;;;;;;5101399;27;51311;-59
2022/04/18 09:54:54;;;;;;;;;9.67;8.67;;;;;;;;5098154;27;51264;-60
2022/04/18 09:57:21;;;;;;;;;10.00;9.00;;;;;;;;5100489;27;51286;-59
2022/04/18 09:59:48;;;;;;;;;11.67;11.33;;;;;;;;5098628;27;52657;-59
2022/04/18 10:02:13;;;;;;;;;8.33;8.33;;;;;;;;5097482;27;51973;-60
2022/04/18 10:04:39;;;;;;;;;11.00;11.00;;;;;;;;5097752;27;51625;-60
2022/04/18 10:07:04;;;;;;;;;10.00;9.00;;;;;;;;5077035;27;53491;-59
2022/04/18 10:09:29;;;;;;;;;10.00;9.00;;;;;;;;5080949;27;51124;-60
2022/04/18 10:11:56;;;;;;;;;8.00;7.67;;;;;;;;5099544;27;51998;-60
2022/04/18 10:14:21;;;;;;;;;8.33;8.33;;;;;;;;5079740;27;51333;-60
2022/04/18 10:16:47;;;;;;;;;8.00;7.00;;;;;;;;5097513;27;51166;-61
2022/04/18 10:19:30;;;;;;;;;9.67;9.67;;;;;;;;5098125;27;51319;-60
2022/04/18 10:22:07;;;;;;;;;7.00;7.00;;;;;;;;5101158;27;51714;-60
2022/04/18 10:24:49;;;;;;;;;10.00;9.00;;;;;;;;5081661;27;52501;-60
2022/04/18 10:27:14;;;;;;;;;13.33;12.00;;;;;;;;5092295;27;51372;-61
2022/04/18 10:29:41;;;;;;;;;10.00;10.00;;;;;;;;5097050;27;52356;-61
2022/04/18 10:32:09;;;;;;;;;9.33;9.00;;;;;;;;5100142;27;51272;-59
2022/04/18 10:34:35;;;;;;;;;7.67;7.67;;;;;;;;5094373;27;51243;-61
2022/04/18 10:37:03;;;;;;;;;9.33;9.33;;;;;;;;5098384;27;51362;-60
2022/04/18 10:39:35;;;;;;;;;8.67;6.67;;;;;;;;5082586;27;51755;-60
2022/04/18 10:42:21;;;;;;;;;7.00;6.67;;;;;;;;5096005;27;51303;-60
2022/04/18 10:45:05;;;;;;;;;9.00;8.67;;;;;;;;5094809;27;51071;-59
2022/04/18 10:47:50;;;;;;;;;7.67;7.67;;;;;;;;5093974;27;50976;-61
2022/04/18 10:50:18;;;;;;;;;6.00;6.00;;;;;;;;5092769;27;51357;-60
2022/04/18 10:53:03;;;;;;;;;8.67;8.00;;;;;;;;5097129;27;52087;-59
2022/04/18 10:55:28;;;;;;;;;7.33;7.00;;;;;;;;5103513;27;51091;-59
2022/04/18 10:58:17;;;;;;;;;11.00;10.33;;;;;;;;5094185;27;51821;-60
2022/04/18 11:00:49;;;;;;;;;9.00;8.67;;;;;;;;5095555;27;51317;-59
2022/04/18 11:03:34;;;;;;;;;8.00;8.00;;;;;;;;5093130;27;51899;-59
2022/04/18 11:05:59;;;;;;;;;10.00;7.33;;;;;;;;5094117;27;51093;-59
2022/04/18 11:08:25;;;;;;;;;7.67;7.67;;;;;;;;5095504;27;51171;-60
2022/04/18 11:10:50;;;;;;;;;8.00;8.00;;;;;;;;5097464;27;51347;-61
2022/04/18 11:13:16;;;;;;;;;8.00;8.00;;;;;;;;5096906;27;51705;-61
2022/04/18 11:15:41;;;;;;;;;7.33;7.33;;;;;;;;5100128;27;51181;-60
2022/04/18 11:18:09;;;;;;;;;7.33;7.33;;;;;;;;5096654;27;51140;-60
2022/04/18 11:20:36;;;;;;;;;9.00;8.00;;;;;;;;5077824;27;51170;-59
2022/04/18 11:23:16;;;;;;;;;8.00;7.67;;;;;;;;5097905;27;52814;-60
2022/04/18 11:25:55;;;;;;;;;9.00;8.67;;;;;;;;5092903;27;51272;-60
2022/04/18 11:28:21;;;;;;;;;9.00;9.00;;;;;;;;5095692;27;51397;-59
2022/04/18 11:30:46;;;;;;;;;5.33;5.33;;;;;;;;5079016;27;51418;-59
2022/04/18 11:33:12;;;;;;;;;5.33;5.33;;;;;;;;5097242;27;51142;-60
2022/04/18 11:35:37;;;;;;;;;7.00;6.33;;;;;;;;5097143;27;51227;-60
2022/04/18 11:38:10;;;;;;;;;9.00;9.00;;;;;;;;5075030;27;51631;-60
2022/04/18 11:40:36;;;;;;;;;7.00;7.00;;;;;;;;5096956;27;51294;-60
2022/04/18 11:43:01;;;;;;;;;5.67;5.67;;;;;;;;5098198;27;51106;-61
2022/04/18 11:45:27;;;;;;;;;6.00;6.00;;;;;;;;5101732;27;51493;-60
2022/04/18 11:47:53;;;;;;;;;5.00;5.00;;;;;;;;5098926;27;52929;-61
2022/04/18 11:50:24;;;;;;;;;7.00;7.00;;;;;;;;5096319;27;51057;-59
2022/04/18 11:52:59;;;;;;;;;5.33;5.33;;;;;;;;5097020;27;51977;-60
2022/04/18 11:55:24;;;;;;;;;6.00;4.67;;;;;;;;5074593;27;51345;-60
2022/04/18 11:57:49;;;;;;;;;5.00;5.00;;;;;;;;5097115;27;53684;-60
2022/04/18 12:00:16;;;;;;;;;8.67;8.00;;;;;;;;5098693;27;51428;-61
2022/04/18 12:08:12;;;;;;;;;4.33;4.33;;;;;;;;5094838;27;51372;-60
2022/04/18 12:10:40;;;;;;;;;6.00;5.33;;;;;;;;5098342;27;50945;-61
2022/04/18 12:13:06;;;;;;;;;4.67;4.67;;;;;;;;5095368;27;51485;-61
2022/04/18 12:15:32;;;;;;;;;2.67;2.67;;;;;;;;5097737;27;51478;-60
2022/04/18 12:17:58;;;;;;;;;3.00;3.00;;;;;;;;5074765;27;51195;-59
2022/04/18 12:20:25;;;;;;;;;5.00;5.00;;;;;;;;5099263;27;51687;-61
2022/04/18 12:22:52;;;;;;;;;6.00;6.00;;;;;;;;5095426;27;51402;-60
2022/04/18 12:25:25;;;;;;;;;4.33;4.33;;;;;;;;5096410;27;51316;-61
2022/04/18 12:27:51;;;;;;;;;6.00;6.00;;;;;;;;5091274;27;51240;-61
2022/04/18 12:30:17;;;;;;;;;6.33;5.33;;;;;;;;5097217;27;51324;-59
2022/04/18 12:32:47;;;;;;;;;5.00;5.00;;;;;;;;5094076;27;51853;-59
2022/04/18 12:35:12;;;;;;;;;6.00;6.00;;;;;;;;5093437;27;51535;-61
2022/04/18 12:37:43;;;;;;;;;4.00;4.00;;;;;;;;5098067;27;51128;-60
2022/04/18 12:40:11;;;;;;;;;3.67;3.67;;;;;;;;5096459;27;51446;-60
2022/04/18 12:42:37;;;;;;;;;4.00;4.00;;;;;;;;5091230;27;51737;-61
2022/04/18 12:45:02;;;;;;;;;4.67;4.67;;;;;;;;5099421;27;52471;-59
2022/04/18 12:47:30;;;;;;;;;5.00;5.00;;;;;;;;5076246;27;51127;-60
2022/04/18 12:50:06;;;;;;;;;6.67;5.67;;;;;;;;5097142;27;51257;-59
2022/04/18 12:52:31;;;;;;;;;4.33;4.33;;;;;;;;5074592;27;51389;-60
2022/04/18 12:55:07;;;;;;;;;4.00;4.00;;;;;;;;5092461;27;51407;-59
2022/04/18 12:57:32;;;;;;;;;4.00;4.00;;;;;;;;5094775;27;51230;-59
2022/04/18 13:00:08;;;;;;;;;4.67;3.67;;;;;;;;5097219;27;51394;-60
2022/04/18 13:02:33;;;;;;;;;4.67;4.67;;;;;;;;5095814;27;52063;-60
2022/04/18 13:04:59;;;;;;;;;4.00;4.00;;;;;;;;5075889;27;51272;-59
2022/04/18 13:07:24;;;;;;;;;6.33;4.33;;;;;;;;5094555;27;50950;-60
2022/04/18 13:10:05;;;;;;;;;6.00;5.00;;;;;;;;5097676;27;51348;-60
2022/04/18 13:12:30;;;;;;;;;6.00;5.67;;;;;;;;5090799;27;52187;-59
2022/04/18 13:15:02;;;;;;;;;5.00;4.00;;;;;;;;5095235;27;51296;-58
2022/04/18 13:17:28;;;;;;;;;3.00;3.00;;;;;;;;5075810;27;51263;-60
2022/04/18 13:19:53;;;;;;;;;9.33;7.33;;;;;;;;5079854;27;51352;-59
2022/04/18 13:22:18;;;;;;;;;5.00;4.00;;;;;;;;5076722;27;52773;-59
2022/04/18 13:24:43;;;;;;;;;5.33;5.33;;;;;;;;5078792;27;51265;-60
2022/04/18 13:27:25;;;;;;;;;4.67;3.67;;;;;;;;5098396;27;51382;-59
2022/04/18 13:29:50;;;;;;;;;5.00;5.00;;;;;;;;5101172;27;51237;-59
2022/04/18 13:32:15;;;;;;;;;4.00;4.00;;;;;;;;5097131;27;52200;-59
2022/04/18 13:34:41;;;;;;;;;4.00;4.00;;;;;;;;5100867;27;51053;-59
2022/04/18 13:37:06;;;;;;;;;3.00;3.00;;;;;;;;5100629;27;51519;-60
2022/04/18 13:39:31;;;;;;;;;5.33;5.00;;;;;;;;5100438;27;51249;-59
2022/04/18 13:41:56;;;;;;;;;5.67;5.00;;;;;;;;5100819;27;52484;-60
2022/04/18 13:44:22;;;;;;;;;4.00;4.00;;;;;;;;5093881;27;51175;-60
2022/04/18 13:46:47;;;;;;;;;6.00;6.00;;;;;;;;5097744;27;51446;-59
2022/04/18 13:49:13;;;;;;;;;4.00;4.00;;;;;;;;5097677;27;51553;-59
2022/04/18 13:51:39;;;;;;;;;6.67;6.00;;;;;;;;5099936;27;52134;-58
2022/04/18 13:54:05;;;;;;;;;5.33;5.33;;;;;;;;5096794;27;51500;-57
2022/04/18 13:56:30;;;;;;;;;6.00;5.00;;;;;;;;5095651;27;51456;-59
2022/04/18 13:58:57;;;;;;;;;5.00;5.00;;;;;;;;5099163;27;51283;-58
2022/04/18 14:01:22;;;;;;;;;4.00;4.00;;;;;;;;5080740;27;51174;-58
2022/04/18 14:03:49;;;;;;;;;4.00;4.00;;;;;;;;5098999;27;51320;-60
2022/04/18 14:06:14;;;;;;;;;3.00;3.00;;;;;;;;5093155;27;51218;-59
2022/04/18 14:08:40;;;;;;;;;5.00;5.00;;;;;;;;5099141;27;51222;-60
2022/04/18 14:11:06;;;;;;;;;5.33;5.00;;;;;;;;5099625;27;51941;-60
2022/04/18 14:13:32;;;;;;;;;4.00;4.00;;;;;;;;5099916;27;51438;-59
2022/04/18 14:21:29;;;;;;;;;5.00;5.00;;;;;;;;5096427;27;54724;-58
2022/04/18 14:23:54;;;;;;;;;3.00;3.00;;;;;;;;5095839;27;51585;-59
2022/04/18 14:26:20;;;;;;;;;2.67;2.67;;;;;;;;5098173;27;51135;-61
2022/04/18 14:28:45;;;;;;;;;4.00;4.00;;;;;;;;5102472;27;51035;-60
2022/04/18 14:31:11;;;;;;;;;5.00;5.00;;;;;;;;5096878;27;51918;-60
2022/04/18 14:33:36;;;;;;;;;3.67;3.67;;;;;;;;5097294;27;51241;-60
2022/04/18 14:36:03;;;;;;;;;3.00;3.00;;;;;;;;5100814;27;51213;-60
2022/04/18 14:38:29;;;;;;;;;4.67;4.00;;;;;;;;5078335;27;51455;-60
2022/04/18 14:40:54;;;;;;;;;5.00;5.00;;;;;;;;5095131;27;51747;-60
2022/04/18 14:43:20;;;;;;;;;5.33;5.33;;;;;;;;5096967;27;51345;-59
2022/04/18 14:45:46;;;;;;;;;3.00;3.00;;;;;;;;5092625;27;51294;-60
2022/04/18 14:48:12;;;;;;;;;4.00;4.00;;;;;;;;5097365;27;51325;-58
2022/04/18 14:50:37;;;;;;;;;4.00;4.00;;;;;;;;5095651;27;51787;-59
2022/04/18 14:53:07;;;;;;;;;4.00;3.67;;;;;;;;5095855;27;51254;-60
2022/04/18 14:55:32;;;;;;;;;3.67;3.00;;;;;;;;5098030;27;53478;-60
2022/04/18 14:57:58;;;;;;;;;7.67;7.00;;;;;;;;5097965;27;51113;-60
2022/04/18 15:00:23;;;;;;;;;10.67;10.67;;;;;;;;5100378;27;51555;-59
2022/04/18 15:02:48;;;;;;;;;5.33;5.33;;;;;;;;5084272;27;51326;-58
2022/04/18 15:05:14;;;;;;;;;4.00;4.00;;;;;;;;5090792;27;52947;-59
2022/04/18 15:07:39;;;;;;;;;7.00;6.00;;;;;;;;5101430;27;51204;-60